Time;durP1;ratioP1;P1;durP2;ratioP2;P2;SDS_P1;SDS_P2;PMS_P1;PMS_P2;Temp;Humidity;BMP_temperature;BMP_pressure;BME280_temperature;BME280_humidity;BME280_pressure;Samples;Min_cycle;Max_cycle;Signal;HPM_P1;HPM_P2
2024/02/16 00:01:47;;;;;;;9.77;6.00;;;;;;;;;;5911220;28;20044;-77
2024/02/16 00:04:38;;;;;;;22.58;8.10;;;;;;;;;;5910854;28;20056;-77
2024/02/16 00:07:28;;;;;;;10.52;8.50;;;;;;;;;;5927628;28;20051;-77
2024/02/16 00:10:21;;;;;;;12.23;6.90;;;;;;;;;;5927530;28;20048;-77
2024/02/16 00:13:12;;;;;;;17.58;9.20;;;;;;;;;;5910846;28;20059;-77
2024/02/16 00:16:03;;;;;;;11.10;6.55;;;;;;;;;;5927673;28;20040;-77
2024/02/16 00:18:54;;;;;;;13.68;7.07;;;;;;;;;;5927848;28;20041;-77
2024/02/16 00:21:45;;;;;;;13.85;7.50;;;;;;;;;;5912185;28;20113;-77
2024/02/16 00:24:36;;;;;;;19.92;9.15;;;;;;;;;;5910704;28;20048;-77
2024/02/16 00:27:27;;;;;;;10.52;6.95;;;;;;;;;;5927023;28;20538;-77
2024/02/16 00:30:22;;;;;;;14.52;9.00;;;;;;;;;;5911972;28;20072;-77
2024/02/16 00:33:13;;;;;;;15.43;8.70;;;;;;;;;;5910123;28;20121;-77
2024/02/16 00:36:04;;;;;;;11.25;7.95;;;;;;;;;;5926369;28;20115;-77
2024/02/16 00:38:57;;;;;;;9.45;6.40;;;;;;;;;;5910751;28;20044;-77
2024/02/16 00:41:48;;;;;;;10.55;7.75;;;;;;;;;;5911530;28;20040;-77
2024/02/16 00:44:39;;;;;;;9.73;7.18;;;;;;;;;;5911425;28;20072;-77
2024/02/16 00:47:30;;;;;;;12.82;6.93;;;;;;;;;;5926711;28;20044;-77
2024/02/16 00:50:20;;;;;;;10.48;7.45;;;;;;;;;;5926651;28;20048;-77
2024/02/16 00:53:11;;;;;;;20.40;6.65;;;;;;;;;;5926843;28;20056;-77
2024/02/16 00:56:02;;;;;;;15.27;8.55;;;;;;;;;;5926669;28;20447;-77
2024/02/16 00:58:53;;;;;;;18.25;7.15;;;;;;;;;;5926745;28;20049;-77
2024/02/16 01:01:45;;;;;;;13.18;8.18;;;;;;;;;;5904696;28;20132;-77
2024/02/16 01:04:36;;;;;;;9.57;6.25;;;;;;;;;;5895366;28;20045;-77
2024/02/16 01:07:27;;;;;;;9.95;6.72;;;;;;;;;;5886399;28;20045;-77
2024/02/16 01:10:17;;;;;;;10.75;7.22;;;;;;;;;;5885952;28;20045;-77
2024/02/16 01:13:08;;;;;;;11.88;9.25;;;;;;;;;;5886032;28;20145;-77
2024/02/16 01:15:59;;;;;;;13.35;8.20;;;;;;;;;;5888040;28;20053;-77
2024/02/16 01:18:50;;;;;;;8.43;5.53;;;;;;;;;;5885886;28;20057;-77
2024/02/16 01:21:41;;;;;;;8.25;6.60;;;;;;;;;;5885976;28;20037;-77
2024/02/16 01:24:32;;;;;;;14.35;8.63;;;;;;;;;;5869400;28;20049;-77
2024/02/16 01:27:23;;;;;;;15.55;6.72;;;;;;;;;;5887254;28;20041;-77
2024/02/16 01:30:15;;;;;;;14.07;7.97;;;;;;;;;;5885791;28;20053;-77
2024/02/16 01:33:06;;;;;;;9.90;5.93;;;;;;;;;;5885778;28;20474;-77
2024/02/16 01:35:58;;;;;;;12.65;7.15;;;;;;;;;;5886141;28;20048;-77
2024/02/16 01:38:49;;;;;;;26.48;8.25;;;;;;;;;;5902457;28;20099;-77
2024/02/16 01:41:40;;;;;;;8.18;6.65;;;;;;;;;;5885751;28;20055;-77
2024/02/16 01:44:30;;;;;;;13.30;6.93;;;;;;;;;;5886809;28;20045;-78
2024/02/16 01:47:21;;;;;;;10.55;5.25;;;;;;;;;;5885327;28;20382;-78
2024/02/16 01:50:12;;;;;;;10.23;6.38;;;;;;;;;;5885558;28;20041;-77
2024/02/16 01:53:04;;;;;;;13.13;7.22;;;;;;;;;;5885138;28;20041;-77
2024/02/16 01:55:54;;;;;;;6.80;4.75;;;;;;;;;;5887064;28;20041;-77
2024/02/16 01:58:46;;;;;;;12.82;6.38;;;;;;;;;;5886503;28;20045;-77
2024/02/16 02:01:36;;;;;;;20.25;6.28;;;;;;;;;;5886690;28;20041;-77
2024/02/16 02:04:27;;;;;;;15.98;6.40;;;;;;;;;;5901587;28;20045;-77
2024/02/16 02:07:19;;;;;;;15.40;7.78;;;;;;;;;;5885041;28;20053;-77
2024/02/16 02:10:13;;;;;;;12.32;6.85;;;;;;;;;;5885089;28;20061;-77
2024/02/16 02:13:04;;;;;;;11.55;6.53;;;;;;;;;;5885049;28;20391;-77
2024/02/16 02:15:55;;;;;;;12.38;6.95;;;;;;;;;;5901882;28;20056;-77
2024/02/16 02:18:46;;;;;;;16.23;6.55;;;;;;;;;;5884992;28;20041;-77
2024/02/16 02:21:37;;;;;;;9.25;5.38;;;;;;;;;;5884986;28;20052;-77
2024/02/16 02:24:28;;;;;;;9.90;5.43;;;;;;;;;;5884926;28;20052;-77
2024/02/16 02:27:19;;;;;;;10.30;6.57;;;;;;;;;;5884688;28;20498;-77
2024/02/16 02:30:10;;;;;;;7.38;5.10;;;;;;;;;;5884797;28;20152;-77
2024/02/16 02:33:01;;;;;;;13.20;5.97;;;;;;;;;;5885889;28;20231;-77
2024/02/16 02:35:52;;;;;;;13.60;6.45;;;;;;;;;;5885388;28;20410;-77
2024/02/16 02:38:44;;;;;;;14.38;5.72;;;;;;;;;;5884533;28;20048;-77
2024/02/16 02:41:35;;;;;;;10.90;5.57;;;;;;;;;;5884571;28;20056;-77
2024/02/16 02:44:26;;;;;;;6.78;5.93;;;;;;;;;;5884180;28;20041;-77
2024/02/16 02:47:17;;;;;;;17.23;6.53;;;;;;;;;;5884523;28;20493;-77
2024/02/16 02:50:08;;;;;;;10.00;5.82;;;;;;;;;;5884328;28;20052;-77
2024/02/16 02:52:59;;;;;;;9.18;6.22;;;;;;;;;;5901452;28;20048;-77
2024/02/16 02:55:50;;;;;;;11.88;6.50;;;;;;;;;;5884581;28;20098;-77
2024/02/16 02:58:40;;;;;;;6.75;4.85;;;;;;;;;;5900480;28;20052;-77
2024/02/16 03:01:32;;;;;;;10.90;5.30;;;;;;;;;;5884231;28;20047;-77
2024/02/16 03:04:22;;;;;;;11.18;4.47;;;;;;;;;;5884107;28;20052;-77
2024/02/16 03:07:14;;;;;;;9.10;5.13;;;;;;;;;;5884269;28;20049;-77
2024/02/16 03:10:06;;;;;;;11.60;7.38;;;;;;;;;;5884378;28;20051;-77
2024/02/16 03:12:56;;;;;;;5.35;4.45;;;;;;;;;;5867958;28;20056;-77
2024/02/16 03:15:47;;;;;;;6.22;4.40;;;;;;;;;;5884133;28;20041;-77
2024/02/16 03:18:39;;;;;;;8.30;5.13;;;;;;;;;;5884321;28;20494;-77
2024/02/16 03:21:30;;;;;;;4.43;3.92;;;;;;;;;;5884055;28;20099;-77
2024/02/16 03:24:21;;;;;;;10.38;6.72;;;;;;;;;;5883993;28;20068;-77
2024/02/16 03:27:12;;;;;;;8.80;5.95;;;;;;;;;;5884115;28;20469;-77
2024/02/16 03:30:03;;;;;;;6.43;5.30;;;;;;;;;;5883722;28;20069;-77
2024/02/16 03:32:55;;;;;;;6.30;4.65;;;;;;;;;;5885606;28;20127;-77
2024/02/16 03:35:46;;;;;;;6.13;3.92;;;;;;;;;;5885241;28;20120;-77
2024/02/16 03:38:37;;;;;;;5.65;4.25;;;;;;;;;;5883956;28;20083;-77
2024/02/16 03:41:28;;;;;;;10.15;5.20;;;;;;;;;;5900477;28;20045;-77
2024/02/16 03:44:18;;;;;;;12.98;6.97;;;;;;;;;;5885237;28;20044;-77
2024/02/16 03:47:09;;;;;;;10.95;4.35;;;;;;;;;;5884858;28;20049;-77
2024/02/16 03:50:00;;;;;;;10.15;5.03;;;;;;;;;;5884241;28;20052;-77
2024/02/16 03:52:51;;;;;;;6.25;3.72;;;;;;;;;;5885255;28;20071;-77
2024/02/16 03:55:43;;;;;;;6.30;5.07;;;;;;;;;;5885014;28;20410;-77
2024/02/16 03:58:34;;;;;;;18.77;5.82;;;;;;;;;;5883472;28;20045;-78
2024/02/16 04:01:24;;;;;;;8.10;6.25;;;;;;;;;;5884863;28;20052;-77
2024/02/16 04:04:16;;;;;;;4.65;3.55;;;;;;;;;;5866960;28;20521;-77
2024/02/16 04:07:08;;;;;;;12.85;5.97;;;;;;;;;;5883749;28;20527;-77
2024/02/16 04:10:00;;;;;;;6.80;4.55;;;;;;;;;;5884010;28;20060;-77
2024/02/16 04:12:51;;;;;;;4.65;3.88;;;;;;;;;;5886750;28;20052;-77
2024/02/16 04:15:41;;;;;;;6.25;4.03;;;;;;;;;;5887563;28;20051;-77
2024/02/16 04:18:33;;;;;;;6.13;5.10;;;;;;;;;;5903907;28;20120;-77
2024/02/16 04:21:23;;;;;;;6.30;4.97;;;;;;;;;;5904088;28;20072;-77
2024/02/16 04:24:14;;;;;;;11.30;5.00;;;;;;;;;;5888887;28;20460;-77
2024/02/16 04:27:05;;;;;;;4.95;3.85;;;;;;;;;;5870947;28;20049;-77
2024/02/16 04:29:58;;;;;;;5.25;4.75;;;;;;;;;;5871693;28;20048;-77
2024/02/16 04:32:49;;;;;;;9.23;6.25;;;;;;;;;;5870828;28;20060;-77
2024/02/16 04:35:40;;;;;;;14.93;5.82;;;;;;;;;;5870956;28;20352;-77
2024/02/16 04:38:31;;;;;;;10.98;5.70;;;;;;;;;;5870735;28;20041;-77
2024/02/16 04:41:22;;;;;;;11.55;6.15;;;;;;;;;;5887202;28;20055;-77
2024/02/16 04:44:13;;;;;;;6.30;5.30;;;;;;;;;;5887011;28;20049;-77
2024/02/16 04:47:05;;;;;;;6.70;5.97;;;;;;;;;;5888157;28;20055;-77
2024/02/16 04:49:55;;;;;;;7.22;5.07;;;;;;;;;;5870915;28;20055;-77
2024/02/16 04:52:46;;;;;;;11.02;6.63;;;;;;;;;;5903358;28;20131;-77
2024/02/16 04:55:37;;;;;;;7.47;5.70;;;;;;;;;;5886781;28;20037;-77
2024/02/16 04:58:28;;;;;;;9.38;5.78;;;;;;;;;;5886521;28;20049;-77
2024/02/16 05:01:19;;;;;;;7.78;6.20;;;;;;;;;;5902858;28;20056;-77
2024/02/16 05:04:10;;;;;;;8.43;4.65;;;;;;;;;;5870089;28;20521;-77
2024/02/16 05:07:01;;;;;;;6.50;4.68;;;;;;;;;;5886476;28;20124;-77
2024/02/16 05:09:55;;;;;;;11.57;7.18;;;;;;;;;;5886706;28;20053;-77
2024/02/16 05:12:46;;;;;;;10.55;7.50;;;;;;;;;;5886311;28;20040;-77
2024/02/16 05:15:37;;;;;;;12.27;6.57;;;;;;;;;;5886366;28;20044;-77
2024/02/16 05:18:28;;;;;;;29.25;9.35;;;;;;;;;;5886450;28;20128;-77
2024/02/16 05:21:19;;;;;;;14.90;6.15;;;;;;;;;;5887670;28;20053;-77
2024/02/16 05:24:09;;;;;;;16.17;8.35;;;;;;;;;;5885479;28;20056;-77
2024/02/16 05:27:00;;;;;;;10.70;7.63;;;;;;;;;;5870279;28;20052;-77
2024/02/16 05:29:51;;;;;;;11.80;6.88;;;;;;;;;;5887215;28;20048;-77
2024/02/16 05:32:42;;;;;;;8.35;5.47;;;;;;;;;;5869273;28;20048;-77
2024/02/16 05:35:33;;;;;;;7.60;5.80;;;;;;;;;;5887401;28;20037;-77
2024/02/16 05:38:40;;;;;;;8.25;5.38;;;;;;;;;;5869390;28;20080;-77
2024/02/16 05:41:31;;;;;;;7.20;4.78;;;;;;;;;;5885668;28;20060;-77
2024/02/16 05:44:22;;;;;;;22.48;4.68;;;;;;;;;;5885590;28;20376;-79
2024/02/16 05:47:12;;;;;;;7.45;5.22;;;;;;;;;;5869100;28;20483;-79
2024/02/16 05:50:04;;;;;;;6.80;4.95;;;;;;;;;;5885850;28;20064;-79
2024/02/16 05:52:56;;;;;;;15.73;6.45;;;;;;;;;;5885670;28;20041;-79
2024/02/16 05:55:47;;;;;;;9.90;4.25;;;;;;;;;;5885488;28;20509;-79
2024/02/16 05:58:38;;;;;;;8.88;4.65;;;;;;;;;;5901691;28;20045;-79
2024/02/16 06:01:29;;;;;;;6.95;3.75;;;;;;;;;;5886850;28;20142;-79
2024/02/16 06:04:20;;;;;;;8.35;4.32;;;;;;;;;;5886719;28;20048;-79
2024/02/16 06:07:11;;;;;;;7.00;4.65;;;;;;;;;;5886334;28;20115;-79
2024/02/16 06:10:05;;;;;;;6.85;4.55;;;;;;;;;;5885094;28;20052;-79
2024/02/16 06:12:56;;;;;;;8.90;7.30;;;;;;;;;;5902190;28;20198;-79
2024/02/16 06:15:47;;;;;;;12.73;6.28;;;;;;;;;;5886245;28;20483;-79
2024/02/16 06:18:38;;;;;;;10.27;5.43;;;;;;;;;;5901623;28;20067;-79
2024/02/16 06:21:29;;;;;;;7.03;4.68;;;;;;;;;;5884801;28;20494;-79
2024/02/16 06:24:25;;;;;;;11.55;6.13;;;;;;;;;;5886107;28;23306;-79
2024/02/16 06:27:16;;;;;;;12.63;6.32;;;;;;;;;;5884919;28;20114;-79
2024/02/16 06:30:12;;;;;;;7.93;5.10;;;;;;;;;;5901138;28;20103;-79
2024/02/16 06:33:03;;;;;;;13.63;5.18;;;;;;;;;;5884480;28;20502;-79
2024/02/16 06:35:54;;;;;;;10.73;6.68;;;;;;;;;;5885527;28;20175;-79
2024/02/16 06:38:45;;;;;;;8.27;4.05;;;;;;;;;;5884267;28;20118;-79
2024/02/16 06:41:36;;;;;;;8.73;5.53;;;;;;;;;;5884587;28;20049;-79
2024/02/16 06:44:27;;;;;;;10.55;5.63;;;;;;;;;;5884417;28;20060;-79
2024/02/16 06:47:18;;;;;;;7.68;4.25;;;;;;;;;;5885471;28;20051;-79
2024/02/16 06:50:09;;;;;;;3.60;2.88;;;;;;;;;;5884596;28;20049;-79
2024/02/16 06:53:00;;;;;;;6.82;3.47;;;;;;;;;;5884445;28;20049;-79
2024/02/16 06:55:51;;;;;;;6.28;3.60;;;;;;;;;;5884861;28;20410;-80
2024/02/16 06:58:42;;;;;;;6.35;3.13;;;;;;;;;;5884067;28;20063;-79
2024/02/16 07:01:32;;;;;;;13.60;5.53;;;;;;;;;;5884354;28;20453;-79
2024/02/16 07:04:23;;;;;;;4.88;3.90;;;;;;;;;;5884153;28;20128;-79
2024/02/16 07:07:14;;;;;;;17.90;5.65;;;;;;;;;;5884239;28;20075;-79
2024/02/16 07:10:06;;;;;;;6.32;4.95;;;;;;;;;;5884282;28;20068;-79
2024/02/16 07:12:57;;;;;;;5.47;3.65;;;;;;;;;;5884628;28;20402;-79
2024/02/16 07:15:48;;;;;;;9.98;5.78;;;;;;;;;;5884197;28;20406;-79
2024/02/16 07:18:39;;;;;;;13.32;5.18;;;;;;;;;;5900637;28;20110;-79
2024/02/16 07:21:30;;;;;;;4.03;3.65;;;;;;;;;;5884307;28;20410;-79
2024/02/16 07:24:20;;;;;;;3.70;2.85;;;;;;;;;;5867511;28;20103;-77
2024/02/16 07:27:11;;;;;;;3.63;3.13;;;;;;;;;;5867424;28;20126;-77
2024/02/16 07:30:04;;;;;;;3.38;3.08;;;;;;;;;;5885249;28;20127;-77
2024/02/16 07:32:54;;;;;;;4.78;2.80;;;;;;;;;;5900783;28;20099;-77
2024/02/16 07:35:46;;;;;;;6.07;3.20;;;;;;;;;;5883780;28;20052;-77
2024/02/16 07:38:36;;;;;;;3.17;2.88;;;;;;;;;;5883872;28;20053;-77
2024/02/16 07:41:27;;;;;;;4.05;3.63;;;;;;;;;;5900318;28;20067;-77
2024/02/16 07:44:18;;;;;;;3.70;2.88;;;;;;;;;;5903814;28;20051;-77
2024/02/16 07:47:09;;;;;;;4.70;3.10;;;;;;;;;;5911858;28;20498;-77
2024/02/16 07:50:00;;;;;;;2.90;2.58;;;;;;;;;;5911739;28;20045;-77
2024/02/16 07:52:51;;;;;;;3.97;2.80;;;;;;;;;;5912692;28;20051;-77
2024/02/16 07:55:42;;;;;;;3.75;3.05;;;;;;;;;;5911191;28;20110;-80
2024/02/16 07:58:32;;;;;;;2.90;2.60;;;;;;;;;;5914283;28;20143;-80
2024/02/16 08:01:23;;;;;;;5.22;2.97;;;;;;;;;;5894574;28;20056;-80
2024/02/16 08:04:14;;;;;;;2.42;1.92;;;;;;;;;;5909146;28;20044;-80
2024/02/16 08:07:05;;;;;;;9.65;3.05;;;;;;;;;;5911082;28;20044;-80
2024/02/16 08:09:55;;;;;;;3.92;2.92;;;;;;;;;;5910541;28;20562;-81
2024/02/16 08:12:46;;;;;;;7.45;3.83;;;;;;;;;;5908998;28;20041;-80
2024/02/16 08:15:37;;;;;;;6.68;2.90;;;;;;;;;;5908444;28;20071;-81
2024/02/16 08:18:29;;;;;;;4.53;2.53;;;;;;;;;;5908234;28;20036;-80
2024/02/16 08:21:20;;;;;;;9.98;4.63;;;;;;;;;;5908453;28;20040;-81
2024/02/16 08:24:12;;;;;;;8.27;3.70;;;;;;;;;;5909586;28;20044;-80
2024/02/16 08:27:04;;;;;;;12.60;4.50;;;;;;;;;;5909562;28;20056;-80
2024/02/16 08:29:55;;;;;;;174.18;91.57;;;;;;;;;;5911144;28;20128;-81
2024/02/16 08:32:45;;;;;;;105.40;63.10;;;;;;;;;;5893740;28;20055;-80
2024/02/16 08:35:37;;;;;;;12.30;8.13;;;;;;;;;;5910794;28;20059;-80
2024/02/16 08:38:28;;;;;;;18.08;10.63;;;;;;;;;;5910490;28;20045;-80
2024/02/16 08:41:19;;;;;;;121.85;41.58;;;;;;;;;;5911775;28;20053;-80
2024/02/16 08:44:10;;;;;;;254.50;83.22;;;;;;;;;;5910300;28;20523;-80
2024/02/16 08:47:00;;;;;;;30.05;11.95;;;;;;;;;;5894258;28;20044;-78
2024/02/16 08:49:51;;;;;;;78.78;31.52;;;;;;;;;;5911627;28;20045;-80
2024/02/16 08:52:42;;;;;;;9.82;5.43;;;;;;;;;;5910143;28;20123;-80
2024/02/16 08:55:33;;;;;;;8.43;4.82;;;;;;;;;;5909907;28;20041;-80
2024/02/16 08:58:24;;;;;;;4.30;2.00;;;;;;;;;;5909032;28;20358;-80
2024/02/16 09:01:16;;;;;;;6.20;2.70;;;;;;;;;;5909735;28;20063;-80
2024/02/16 09:04:07;;;;;;;9.40;3.97;;;;;;;;;;5909571;28;20129;-81
2024/02/16 09:06:59;;;;;;;3.20;1.90;;;;;;;;;;5910736;28;20072;-80
2024/02/16 09:09:50;;;;;;;3.47;1.45;;;;;;;;;;5909807;28;20123;-81
2024/02/16 09:12:41;;;;;;;4.57;1.77;;;;;;;;;;5909225;28;20044;-80
2024/02/16 09:15:32;;;;;;;29.73;12.48;;;;;;;;;;5909747;28;20067;-81
2024/02/16 09:18:23;;;;;;;2.80;2.20;;;;;;;;;;5910695;28;20036;-80
2024/02/16 09:21:14;;;;;;;3.25;1.48;;;;;;;;;;5909510;28;20048;-80
2024/02/16 09:24:10;;;;;;;1.70;1.13;;;;;;;;;;5909358;28;20122;-80
2024/02/16 09:27:04;;;;;;;3.88;1.83;;;;;;;;;;5909623;28;20902;-80
2024/02/16 09:29:55;;;;;;;2.15;1.33;;;;;;;;;;5909679;28;20044;-81
2024/02/16 09:32:46;;;;;;;1.17;0.68;;;;;;;;;;5892372;28;20041;-81
2024/02/16 09:35:37;;;;;;;1.90;0.77;;;;;;;;;;5909668;28;20052;-80
2024/02/16 09:38:28;;;;;;;1.00;0.68;;;;;;;;;;5908846;28;20059;-80
2024/02/16 09:41:19;;;;;;;0.90;0.65;;;;;;;;;;5908844;28;20413;-81
2024/02/16 09:44:12;;;;;;;1.73;1.05;;;;;;;;;;5910314;28;20040;-80
2024/02/16 09:47:04;;;;;;;1.13;0.80;;;;;;;;;;5925390;28;20101;-80
2024/02/16 09:49:55;;;;;;;3.70;1.65;;;;;;;;;;5910530;28;20044;-81
2024/02/16 09:52:49;;;;;;;1.92;1.02;;;;;;;;;;5908470;28;20048;-81
2024/02/16 09:55:40;;;;;;;2.35;0.85;;;;;;;;;;5908782;28;20047;-80
2024/02/16 09:58:31;;;;;;;1.58;0.70;;;;;;;;;;5908630;28;20122;-81
2024/02/16 10:01:23;;;;;;;1.15;0.95;;;;;;;;;;5908323;28;20044;-80
2024/02/16 10:04:14;;;;;;;0.93;0.68;;;;;;;;;;5891749;28;20044;-80
2024/02/16 10:07:05;;;;;;;0.90;0.45;;;;;;;;;;5908488;28;20049;-80
2024/02/16 10:10:02;;;;;;;0.90;0.70;;;;;;;;;;5908290;28;20048;-79
2024/02/16 10:13:08;;;;;;;1.60;0.88;;;;;;;;;;5908453;28;20044;-80
2024/02/16 10:16:11;;;;;;;3.10;1.23;;;;;;;;;;5925189;28;20059;-80
2024/02/16 10:19:11;;;;;;;1.48;0.88;;;;;;;;;;5907872;28;20512;-80
2024/02/16 10:22:11;;;;;;;2.13;1.55;;;;;;;;;;5909382;28;20074;-80
2024/02/16 10:25:13;;;;;;;2.13;0.80;;;;;;;;;;5891622;28;20047;-80
2024/02/16 10:28:09;;;;;;;2.03;0.93;;;;;;;;;;5908841;28;20040;-80
2024/02/16 10:31:05;;;;;;;1.42;0.80;;;;;;;;;;5925000;28;20067;-81
2024/02/16 10:34:10;;;;;;;0.45;0.45;;;;;;;;;;5907870;28;20113;-81
2024/02/16 10:37:01;;;;;;;0.95;0.77;;;;;;;;;;5908808;28;20044;-79
2024/02/16 10:39:55;;;;;;;0.93;0.60;;;;;;;;;;5908632;28;20396;-80
2024/02/16 10:42:51;;;;;;;0.93;0.77;;;;;;;;;;5908261;28;20052;-80
2024/02/16 10:45:41;;;;;;;0.47;0.35;;;;;;;;;;5908039;28;20043;-81
2024/02/16 10:48:32;;;;;;;0.60;0.57;;;;;;;;;;5908017;28;20066;-81
2024/02/16 10:51:46;;;;;;;2.33;1.35;;;;;;;;;;5907437;28;20177;-80
2024/02/16 10:54:38;;;;;;;1.30;0.45;;;;;;;;;;5907052;28;20412;-80
2024/02/16 10:57:29;;;;;;;0.73;0.70;;;;;;;;;;5908280;28;20052;-80
2024/02/16 11:00:20;;;;;;;1.60;0.90;;;;;;;;;;5907156;28;20044;-80
2024/02/16 11:03:17;;;;;;;1.17;0.80;;;;;;;;;;5890458;28;20059;-80
2024/02/16 11:06:17;;;;;;;1.77;0.77;;;;;;;;;;5906894;28;20048;-80
2024/02/16 11:09:10;;;;;;;0.52;0.50;;;;;;;;;;5907221;28;20048;-80
2024/02/16 11:12:03;;;;;;;1.02;0.75;;;;;;;;;;5908499;28;20052;-79
2024/02/16 11:14:56;;;;;;;1.33;0.98;;;;;;;;;;5907780;28;20437;-80
2024/02/16 11:17:47;;;;;;;1.10;0.70;;;;;;;;;;5906901;28;20048;-80
2024/02/16 11:20:39;;;;;;;2.50;0.75;;;;;;;;;;5908897;28;20097;-80
2024/02/16 11:23:31;;;;;;;8.77;1.38;;;;;;;;;;5911711;28;20063;-80
2024/02/16 11:26:22;;;;;;;1.20;0.80;;;;;;;;;;5911797;28;20045;-80
2024/02/16 11:29:13;;;;;;;6.43;2.13;;;;;;;;;;5911563;28;20052;-79
2024/02/16 11:32:06;;;;;;;4.40;1.75;;;;;;;;;;5911512;28;20382;-79
2024/02/16 11:35:06;;;;;;;4.30;1.98;;;;;;;;;;5911914;28;20052;-80
2024/02/16 11:37:58;;;;;;;5.80;2.45;;;;;;;;;;5928537;28;20040;-80
2024/02/16 11:41:04;;;;;;;2.70;1.25;;;;;;;;;;5911410;28;20060;-80
2024/02/16 11:44:01;;;;;;;3.53;1.30;;;;;;;;;;5911827;28;20070;-80
2024/02/16 11:46:55;;;;;;;1.92;0.90;;;;;;;;;;5928511;28;20040;-80
2024/02/16 11:49:46;;;;;;;1.00;0.73;;;;;;;;;;5895134;28;20059;-80
2024/02/16 11:52:41;;;;;;;4.75;1.33;;;;;;;;;;5911389;28;20096;-80
2024/02/16 11:55:33;;;;;;;3.90;1.30;;;;;;;;;;5911338;28;20072;-80
2024/02/16 11:58:24;;;;;;;1.30;0.90;;;;;;;;;;5911200;28;20048;-80
2024/02/16 12:01:16;;;;;;;2.47;1.13;;;;;;;;;;5910986;28;20052;-80
2024/02/16 12:04:06;;;;;;;1.38;0.85;;;;;;;;;;5910890;28;20052;-80
2024/02/16 12:07:02;;;;;;;1.00;0.80;;;;;;;;;;5895341;28;20044;-80
2024/02/16 12:10:00;;;;;;;1.20;0.90;;;;;;;;;;5911904;28;20045;-80
2024/02/16 12:12:51;;;;;;;1.40;1.05;;;;;;;;;;5911483;28;20044;-80
2024/02/16 12:15:56;;;;;;;1.88;1.08;;;;;;;;;;5912851;28;20044;-80
2024/02/16 12:18:47;;;;;;;6.32;1.92;;;;;;;;;;5911456;28;20098;-80
2024/02/16 12:21:38;;;;;;;4.68;1.50;;;;;;;;;;5911145;28;20040;-80
2024/02/16 12:24:30;;;;;;;2.28;1.63;;;;;;;;;;5912527;28;20056;-80
2024/02/16 12:27:21;;;;;;;3.05;1.73;;;;;;;;;;5911536;28;20147;-80
2024/02/16 12:30:12;;;;;;;4.18;1.85;;;;;;;;;;5911168;28;20049;-79
2024/02/16 12:33:04;;;;;;;6.90;1.80;;;;;;;;;;5909580;28;20047;-80
2024/02/16 12:35:55;;;;;;;5.25;1.38;;;;;;;;;;5911390;28;20052;-80
2024/02/16 12:38:45;;;;;;;1.52;1.17;;;;;;;;;;5912150;28;20050;-80
2024/02/16 12:41:38;;;;;;;0.82;0.75;;;;;;;;;;5910746;28;20048;-80
2024/02/16 12:44:28;;;;;;;2.92;1.98;;;;;;;;;;5910438;28;20414;-80
2024/02/16 12:47:20;;;;;;;2.63;1.40;;;;;;;;;;5910415;28;20055;-80
2024/02/16 12:50:10;;;;;;;2.75;1.33;;;;;;;;;;5910828;28;20044;-80
2024/02/16 12:53:01;;;;;;;7.47;4.00;;;;;;;;;;5894028;28;20072;-79
2024/02/16 12:55:54;;;;;;;2.00;0.95;;;;;;;;;;5911182;28;20056;-81
2024/02/16 12:58:45;;;;;;;1.75;0.98;;;;;;;;;;5910471;28;20052;-80
2024/02/16 13:01:36;;;;;;;1.45;0.95;;;;;;;;;;5910196;28;20048;-80
2024/02/16 13:04:31;;;;;;;0.77;0.68;;;;;;;;;;5910169;28;20414;-80
2024/02/16 13:07:24;;;;;;;1.08;0.95;;;;;;;;;;5911529;28;20044;-80
2024/02/16 13:10:15;;;;;;;1.02;0.65;;;;;;;;;;5909947;28;20071;-79
2024/02/16 13:13:05;;;;;;;3.72;1.67;;;;;;;;;;5882089;28;20513;-79
2024/02/16 13:15:58;;;;;;;2.40;1.42;;;;;;;;;;5907565;28;20047;-79
2024/02/16 13:18:49;;;;;;;2.70;1.30;;;;;;;;;;5907895;28;20040;-79
2024/02/16 13:21:40;;;;;;;5.13;1.50;;;;;;;;;;5908963;28;20094;-79
2024/02/16 13:24:33;;;;;;;4.95;1.23;;;;;;;;;;5907481;28;20127;-79
2024/02/16 13:27:24;;;;;;;2.35;1.58;;;;;;;;;;5908636;28;20514;-79
2024/02/16 13:30:15;;;;;;;2.15;1.02;;;;;;;;;;5909125;28;20098;-80
2024/02/16 13:33:08;;;;;;;5.97;2.00;;;;;;;;;;5908732;28;20055;-79
2024/02/16 13:36:00;;;;;;;7.78;1.08;;;;;;;;;;5908447;28;20143;-79
2024/02/16 13:38:51;;;;;;;1.52;0.90;;;;;;;;;;5909438;28;20052;-79
2024/02/16 13:41:43;;;;;;;1.67;1.00;;;;;;;;;;5925210;28;20047;-79
2024/02/16 13:44:35;;;;;;;4.60;1.48;;;;;;;;;;5906601;28;20045;-80
2024/02/16 13:47:25;;;;;;;13.35;5.88;;;;;;;;;;5907218;28;20530;-80
2024/02/16 13:50:16;;;;;;;4.75;2.95;;;;;;;;;;5908104;28;20048;-80
2024/02/16 13:53:07;;;;;;;21.08;11.02;;;;;;;;;;5907227;28;20045;-80
2024/02/16 13:56:03;;;;;;;11.05;4.97;;;;;;;;;;5909633;28;20082;-80
2024/02/16 13:58:54;;;;;;;10.30;5.32;;;;;;;;;;5906872;28;20044;-80
2024/02/16 14:01:45;;;;;;;2.65;2.08;;;;;;;;;;5908501;28;20045;-80
2024/02/16 14:04:37;;;;;;;2.67;1.23;;;;;;;;;;5907162;28;20048;-80
2024/02/16 14:07:32;;;;;;;1.63;1.30;;;;;;;;;;5907866;28;20063;-80
2024/02/16 14:10:32;;;;;;;1.08;0.85;;;;;;;;;;5908091;28;20044;-80
2024/02/16 14:13:24;;;;;;;8.43;1.45;;;;;;;;;;5906315;28;20044;-79
2024/02/16 14:16:15;;;;;;;8.02;1.88;;;;;;;;;;5907274;28;20056;-80
2024/02/16 14:19:06;;;;;;;6.85;1.15;;;;;;;;;;5907325;28;20057;-80
2024/02/16 14:21:57;;;;;;;2.00;1.10;;;;;;;;;;5909421;28;20051;-80
2024/02/16 14:24:48;;;;;;;1.45;1.20;;;;;;;;;;5925120;28;20110;-80
2024/02/16 14:27:40;;;;;;;1.98;1.10;;;;;;;;;;5909268;28;20433;-80
2024/02/16 14:30:32;;;;;;;5.60;1.45;;;;;;;;;;5908001;28;20048;-80
2024/02/16 14:33:23;;;;;;;3.70;1.40;;;;;;;;;;5909504;28;20052;-80
2024/02/16 14:36:24;;;;;;;4.05;2.22;;;;;;;;;;5923598;28;20041;-80
2024/02/16 14:39:16;;;;;;;15.15;2.55;;;;;;;;;;5909284;28;20715;-79
2024/02/16 14:42:07;;;;;;;5.38;2.42;;;;;;;;;;5909540;28;20376;-79
2024/02/16 14:44:58;;;;;;;4.60;2.72;;;;;;;;;;5925151;28;20182;-80
2024/02/16 14:47:49;;;;;;;3.63;2.20;;;;;;;;;;5907873;28;20068;-79
2024/02/16 14:50:41;;;;;;;4.78;2.88;;;;;;;;;;5924370;28;20098;-80
2024/02/16 14:53:32;;;;;;;3.88;1.52;;;;;;;;;;5908356;28;20060;-80
2024/02/16 14:56:24;;;;;;;3.58;2.63;;;;;;;;;;5907416;28;20399;-80
2024/02/16 14:59:14;;;;;;;9.13;5.10;;;;;;;;;;5891224;28;20555;-79
2024/02/16 15:02:05;;;;;;;4.30;2.35;;;;;;;;;;5908903;28;20052;-79
2024/02/16 15:04:56;;;;;;;3.15;1.55;;;;;;;;;;5908927;28;20044;-79
2024/02/16 15:07:47;;;;;;;2.33;1.35;;;;;;;;;;5907971;28;20056;-82
2024/02/16 15:10:38;;;;;;;4.18;1.67;;;;;;;;;;5908115;28;20418;-82
2024/02/16 15:13:30;;;;;;;2.95;1.63;;;;;;;;;;5908041;28;20421;-80
2024/02/16 15:16:21;;;;;;;1.15;1.05;;;;;;;;;;5908988;28;20051;-80
2024/02/16 15:19:12;;;;;;;2.88;2.55;;;;;;;;;;5924455;28;20048;-81
2024/02/16 15:22:03;;;;;;;5.20;3.15;;;;;;;;;;5910058;28;20048;-81
2024/02/16 15:24:54;;;;;;;5.53;3.88;;;;;;;;;;5892480;28;20067;-82
2024/02/16 15:27:46;;;;;;;6.60;3.30;;;;;;;;;;5907427;28;20048;-82
2024/02/16 15:30:36;;;;;;;3.70;1.60;;;;;;;;;;5909517;28;20066;-82
2024/02/16 15:33:27;;;;;;;3.97;1.52;;;;;;;;;;5907200;28;20559;-79
2024/02/16 15:36:18;;;;;;;9.48;1.83;;;;;;;;;;5908447;28;20045;-80
2024/02/16 15:39:10;;;;;;;2.42;1.45;;;;;;;;;;5907445;28;20071;-79
2024/02/16 15:42:01;;;;;;;1.73;1.40;;;;;;;;;;5890949;28;20056;-79
2024/02/16 15:44:52;;;;;;;1.52;1.25;;;;;;;;;;5909109;28;20119;-80
2024/02/16 15:47:45;;;;;;;3.15;1.50;;;;;;;;;;5907034;28;20059;-79
2024/02/16 15:50:36;;;;;;;26.38;1.40;;;;;;;;;;5924029;28;20049;-80
2024/02/16 15:53:26;;;;;;;4.57;2.10;;;;;;;;;;5907183;28;20123;-80
2024/02/16 15:56:18;;;;;;;2.67;1.60;;;;;;;;;;5908318;28;20052;-79
2024/02/16 15:59:09;;;;;;;2.30;1.58;;;;;;;;;;5907108;28;20044;-79
2024/02/16 16:02:02;;;;;;;2.65;1.55;;;;;;;;;;5907708;28;20059;-82
2024/02/16 16:04:53;;;;;;;5.65;1.52;;;;;;;;;;5907274;28;20043;-80
2024/02/16 16:07:44;;;;;;;1.92;1.73;;;;;;;;;;5926590;28;20454;-79
2024/02/16 16:10:36;;;;;;;5.95;2.40;;;;;;;;;;5911196;28;20040;-80
2024/02/16 16:13:27;;;;;;;6.32;2.20;;;;;;;;;;5910934;28;20046;-79
2024/02/16 16:16:18;;;;;;;7.55;3.13;;;;;;;;;;5910865;28;20045;-79
2024/02/16 16:19:09;;;;;;;17.52;2.60;;;;;;;;;;5912091;28;20403;-79
2024/02/16 16:22:00;;;;;;;5.68;2.72;;;;;;;;;;5912680;28;20123;-79
2024/02/16 16:24:51;;;;;;;8.77;4.10;;;;;;;;;;5911075;28;20498;-79
2024/02/16 16:27:48;;;;;;;26.05;6.00;;;;;;;;;;5911892;28;20044;-79
2024/02/16 16:30:39;;;;;;;21.50;8.38;;;;;;;;;;5927227;28;20156;-79
2024/02/16 16:33:30;;;;;;;21.70;10.40;;;;;;;;;;5910454;28;20062;-79
2024/02/16 16:36:21;;;;;;;30.08;13.07;;;;;;;;;;5911775;28;20045;-82
2024/02/16 16:39:12;;;;;;;28.65;16.55;;;;;;;;;;5910592;28;20408;-82
2024/02/16 16:42:04;;;;;;;36.13;17.08;;;;;;;;;;5910101;28;20131;-79
2024/02/16 16:44:55;;;;;;;35.47;13.63;;;;;;;;;;5910874;28;20098;-80
2024/02/16 16:47:47;;;;;;;23.15;10.18;;;;;;;;;;5910105;28;20041;-79
2024/02/16 16:50:39;;;;;;;19.73;10.20;;;;;;;;;;5911456;28;20056;-79
2024/02/16 16:53:30;;;;;;;19.85;9.95;;;;;;;;;;5911310;28;20552;-79
2024/02/16 16:56:21;;;;;;;32.63;11.00;;;;;;;;;;5910641;28;20052;-82
2024/02/16 16:59:12;;;;;;;15.52;7.30;;;;;;;;;;5909767;28;20045;-79
2024/02/16 17:02:04;;;;;;;9.30;6.63;;;;;;;;;;5910588;28;20067;-81
2024/02/16 17:04:55;;;;;;;11.85;6.38;;;;;;;;;;5911174;28;20057;-82